sensor_id;sensor_type;location;lat;lon;timestamp;pressure;altitude;pressure_sealevel;temperature;humidity
62680;BME280;68213;40.528;44.712;2023-04-25T00:00:59;80083.22;;;6.48;82.44
62680;BME280;68213;40.528;44.712;2023-04-25T00:02:00;80079.34;;;6.38;83.06
62680;BME280;68213;40.528;44.712;2023-04-25T00:03:01;80091.41;;;6.43;83.29
62680;BME280;68213;40.528;44.712;2023-04-25T00:04:02;80073.19;;;6.33;84.37
62680;BME280;68213;40.528;44.712;2023-04-25T00:05:03;80085.84;;;6.37;85.00
62680;BME280;68213;40.528;44.712;2023-04-25T00:06:05;80089.78;;;6.38;85.18
62680;BME280;68213;40.528;44.712;2023-04-25T00:07:06;80082.03;;;6.28;85.24
62680;BME280;68213;40.528;44.712;2023-04-25T00:08:07;80090.69;;;6.30;85.76
62680;BME280;68213;40.528;44.712;2023-04-25T00:09:08;80080.94;;;6.31;85.01
62680;BME280;68213;40.528;44.712;2023-04-25T00:10:10;80094.66;;;6.31;84.11
62680;BME280;68213;40.528;44.712;2023-04-25T00:11:12;80085.34;;;6.28;84.25
62680;BME280;68213;40.528;44.712;2023-04-25T00:12:12;80083.38;;;6.17;85.05
62680;BME280;68213;40.528;44.712;2023-04-25T00:13:16;80084.63;;;6.16;85.33
62680;BME280;68213;40.528;44.712;2023-04-25T00:14:17;80087.13;;;6.14;85.44
62680;BME280;68213;40.528;44.712;2023-04-25T00:15:18;80082.78;;;6.07;85.38
62680;BME280;68213;40.528;44.712;2023-04-25T00:16:19;80086.63;;;6.06;86.25
62680;BME280;68213;40.528;44.712;2023-04-25T00:17:20;80086.88;;;6.10;85.83
62680;BME280;68213;40.528;44.712;2023-04-25T00:18:20;80085.88;;;5.93;86.89
62680;BME280;68213;40.528;44.712;2023-04-25T00:19:23;80078.13;;;5.83;86.99
62680;BME280;68213;40.528;44.712;2023-04-25T00:20:24;80089.84;;;5.94;87.24
62680;BME280;68213;40.528;44.712;2023-04-25T00:21:25;80089.97;;;5.96;86.97
62680;BME280;68213;40.528;44.712;2023-04-25T00:22:26;80093.81;;;5.95;87.27
62680;BME280;68213;40.528;44.712;2023-04-25T00:23:27;80095.72;;;6.05;86.76
62680;BME280;68213;40.528;44.712;2023-04-25T00:24:28;80095.94;;;6.09;86.42
62680;BME280;68213;40.528;44.712;2023-04-25T00:25:28;80103.00;;;5.96;87.49
62680;BME280;68213;40.528;44.712;2023-04-25T00:26:30;80103.00;;;5.96;87.24
62680;BME280;68213;40.528;44.712;2023-04-25T00:27:31;80094.09;;;5.99;87.45
62680;BME280;68213;40.528;44.712;2023-04-25T00:28:31;80095.88;;;5.97;87.93
62680;BME280;68213;40.528;44.712;2023-04-25T00:29:33;80086.56;;;5.94;87.68
62680;BME280;68213;40.528;44.712;2023-04-25T00:30:33;80103.53;;;5.83;88.46
62680;BME280;68213;40.528;44.712;2023-04-25T00:31:34;80097.94;;;5.77;89.02
62680;BME280;68213;40.528;44.712;2023-04-25T00:32:35;80103.09;;;5.86;89.01
62680;BME280;68213;40.528;44.712;2023-04-25T00:33:35;80113.09;;;5.90;88.71
62680;BME280;68213;40.528;44.712;2023-04-25T00:34:36;80113.75;;;5.91;88.27
62680;BME280;68213;40.528;44.712;2023-04-25T00:35:37;80116.50;;;5.93;88.30
62680;BME280;68213;40.528;44.712;2023-04-25T00:36:38;80116.06;;;5.96;87.88
62680;BME280;68213;40.528;44.712;2023-04-25T00:37:39;80116.56;;;5.83;87.85
62680;BME280;68213;40.528;44.712;2023-04-25T00:38:40;80127.81;;;5.85;88.05
62680;BME280;68213;40.528;44.712;2023-04-25T00:39:41;80118.31;;;5.90;87.75
62680;BME280;68213;40.528;44.712;2023-04-25T00:40:41;80133.69;;;5.86;79.25
62680;BME280;68213;40.528;44.712;2023-04-25T00:41:45;80114.34;;;5.67;78.35
62680;BME280;68213;40.528;44.712;2023-04-25T00:42:46;80104.63;;;5.80;81.36
62680;BME280;68213;40.528;44.712;2023-04-25T00:43:50;80123.41;;;5.88;78.89
62680;BME280;68213;40.528;44.712;2023-04-25T00:44:52;80125.34;;;5.87;78.86
62680;BME280;68213;40.528;44.712;2023-04-25T00:45:53;80131.84;;;5.77;76.81
62680;BME280;68213;40.528;44.712;2023-04-25T00:46:54;80116.38;;;5.69;76.13
62680;BME280;68213;40.528;44.712;2023-04-25T00:47:55;80127.25;;;5.65;77.52
62680;BME280;68213;40.528;44.712;2023-04-25T00:48:57;80122.16;;;5.67;80.17
62680;BME280;68213;40.528;44.712;2023-04-25T00:49:57;80120.66;;;5.64;77.89
62680;BME280;68213;40.528;44.712;2023-04-25T00:50:58;80098.78;;;5.48;74.30
62680;BME280;68213;40.528;44.712;2023-04-25T00:52:00;80121.72;;;5.71;74.76
62680;BME280;68213;40.528;44.712;2023-04-25T00:53:03;80116.22;;;5.77;74.90
62680;BME280;68213;40.528;44.712;2023-04-25T00:54:04;80104.63;;;5.80;72.91
62680;BME280;68213;40.528;44.712;2023-04-25T00:55:05;80105.56;;;5.84;72.22
62680;BME280;68213;40.528;44.712;2023-04-25T00:56:06;80107.75;;;5.88;72.45
62680;BME280;68213;40.528;44.712;2023-04-25T00:57:07;80112.97;;;5.88;70.96
62680;BME280;68213;40.528;44.712;2023-04-25T00:58:08;80108.97;;;5.87;72.81
62680;BME280;68213;40.528;44.712;2023-04-25T00:59:09;80102.75;;;5.92;73.64
62680;BME280;68213;40.528;44.712;2023-04-25T01:00:10;80102.53;;;5.88;75.29
62680;BME280;68213;40.528;44.712;2023-04-25T01:01:11;80101.84;;;5.87;74.72
62680;BME280;68213;40.528;44.712;2023-04-25T01:02:13;80105.44;;;5.82;74.04
62680;BME280;68213;40.528;44.712;2023-04-25T01:03:15;80101.66;;;5.74;72.76
62680;BME280;68213;40.528;44.712;2023-04-25T01:04:16;80117.31;;;5.74;72.85
62680;BME280;68213;40.528;44.712;2023-04-25T01:05:17;80112.41;;;5.68;73.57
62680;BME280;68213;40.528;44.712;2023-04-25T01:06:19;80110.09;;;5.62;73.41
62680;BME280;68213;40.528;44.712;2023-04-25T01:07:20;80109.72;;;5.56;74.14
62680;BME280;68213;40.528;44.712;2023-04-25T01:08:23;80116.06;;;5.53;74.24
62680;BME280;68213;40.528;44.712;2023-04-25T01:09:25;80117.31;;;5.52;74.42
62680;BME280;68213;40.528;44.712;2023-04-25T01:10:26;80104.94;;;5.52;74.95
62680;BME280;68213;40.528;44.712;2023-04-25T01:11:27;80114.00;;;5.51;75.78
62680;BME280;68213;40.528;44.712;2023-04-25T01:12:28;80108.78;;;5.51;75.08
62680;BME280;68213;40.528;44.712;2023-04-25T01:13:29;80116.06;;;5.53;73.52
62680;BME280;68213;40.528;44.712;2023-04-25T01:14:30;80114.84;;;5.54;73.29
62680;BME280;68213;40.528;44.712;2023-04-25T01:15:34;80114.44;;;5.48;73.24
62680;BME280;68213;40.528;44.712;2023-04-25T01:16:36;80118.72;;;5.43;74.12
62680;BME280;68213;40.528;44.712;2023-04-25T01:17:37;80109.97;;;5.38;73.91
62680;BME280;68213;40.528;44.712;2023-04-25T01:18:38;80110.28;;;5.33;74.41
62680;BME280;68213;40.528;44.712;2023-04-25T01:19:39;80122.13;;;5.24;74.08
62680;BME280;68213;40.528;44.712;2023-04-25T01:20:41;80100.38;;;5.10;74.29
62680;BME280;68213;40.528;44.712;2023-04-25T01:21:42;80123.09;;;5.19;74.75
62680;BME280;68213;40.528;44.712;2023-04-25T01:22:43;80106.28;;;5.10;75.17
62680;BME280;68213;40.528;44.712;2023-04-25T01:23:44;80111.91;;;5.06;74.20
62680;BME280;68213;40.528;44.712;2023-04-25T01:24:45;80117.13;;;5.06;74.03
62680;BME280;68213;40.528;44.712;2023-04-25T01:25:46;80117.50;;;5.13;74.71
62680;BME280;68213;40.528;44.712;2023-04-25T01:26:48;80096.47;;;4.99;75.13
62680;BME280;68213;40.528;44.712;2023-04-25T01:27:53;80120.09;;;5.13;75.36
62680;BME280;68213;40.528;44.712;2023-04-25T01:28:54;80119.44;;;5.12;75.87
62680;BME280;68213;40.528;44.712;2023-04-25T01:29:55;80119.59;;;5.04;75.66
62680;BME280;68213;40.528;44.712;2023-04-25T01:30:56;80109.47;;;4.99;75.35
62680;BME280;68213;40.528;44.712;2023-04-25T01:31:58;80121.22;;;5.10;75.64
62680;BME280;68213;40.528;44.712;2023-04-25T01:33:00;80120.28;;;5.05;76.62
62680;BME280;68213;40.528;44.712;2023-04-25T01:34:01;80115.19;;;5.07;76.51
62680;BME280;68213;40.528;44.712;2023-04-25T01:35:02;80116.69;;;5.10;76.99
62680;BME280;68213;40.528;44.712;2023-04-25T01:36:03;80114.22;;;5.12;76.68
62680;BME280;68213;40.528;44.712;2023-04-25T01:37:04;80115.59;;;5.13;76.41
62680;BME280;68213;40.528;44.712;2023-04-25T01:38:05;80109.94;;;5.17;76.26
62680;BME280;68213;40.528;44.712;2023-04-25T01:39:06;80119.25;;;5.20;77.20
62680;BME280;68213;40.528;44.712;2023-04-25T01:40:09;80118.16;;;5.23;76.93
62680;BME280;68213;40.528;44.712;2023-04-25T01:41:10;80115.53;;;5.23;76.85
62680;BME280;68213;40.528;44.712;2023-04-25T01:42:12;80120.88;;;5.25;76.18
62680;BME280;68213;40.528;44.712;2023-04-25T01:43:13;80121.72;;;5.18;78.63
62680;BME280;68213;40.528;44.712;2023-04-25T01:44:14;80125.03;;;5.18;79.20
62680;BME280;68213;40.528;44.712;2023-04-25T01:45:15;80120.97;;;5.05;79.38
62680;BME280;68213;40.528;44.712;2023-04-25T01:46:17;80121.28;;;4.90;81.07
62680;BME280;68213;40.528;44.712;2023-04-25T01:47:18;80124.88;;;4.85;81.96
62680;BME280;68213;40.528;44.712;2023-04-25T01:48:19;80125.59;;;4.75;83.29
62680;BME280;68213;40.528;44.712;2023-04-25T01:49:20;80123.50;;;4.84;83.71
62680;BME280;68213;40.528;44.712;2023-04-25T01:50:20;80123.34;;;4.91;83.18
62680;BME280;68213;40.528;44.712;2023-04-25T01:51:22;80135.66;;;5.01;82.94
62680;BME280;68213;40.528;44.712;2023-04-25T01:52:23;80131.25;;;5.03;82.72
62680;BME280;68213;40.528;44.712;2023-04-25T01:53:24;80119.06;;;4.96;83.24
62680;BME280;68213;40.528;44.712;2023-04-25T01:54:25;80123.59;;;4.96;83.84
62680;BME280;68213;40.528;44.712;2023-04-25T01:55:26;80124.56;;;5.00;83.36
62680;BME280;68213;40.528;44.712;2023-04-25T01:56:30;80121.38;;;5.02;83.02
62680;BME280;68213;40.528;44.712;2023-04-25T01:57:31;80120.28;;;5.05;82.87
62680;BME280;68213;40.528;44.712;2023-04-25T01:58:32;80125.75;;;5.09;83.15
62680;BME280;68213;40.528;44.712;2023-04-25T01:59:32;80120.28;;;5.05;83.83
62680;BME280;68213;40.528;44.712;2023-04-25T02:00:33;80127.63;;;4.87;84.09
62680;BME280;68213;40.528;44.712;2023-04-25T02:01:34;80112.00;;;4.77;84.51
62680;BME280;68213;40.528;44.712;2023-04-25T02:02:35;80118.31;;;4.84;84.45
62680;BME280;68213;40.528;44.712;2023-04-25T02:03:36;80120.22;;;4.83;84.32
62680;BME280;68213;40.528;44.712;2023-04-25T02:04:36;80126.53;;;4.80;83.72
62680;BME280;68213;40.528;44.712;2023-04-25T02:05:39;80124.88;;;4.85;83.79
62680;BME280;68213;40.528;44.712;2023-04-25T02:06:40;80135.31;;;4.85;83.53
62680;BME280;68213;40.528;44.712;2023-04-25T02:07:41;80132.56;;;4.83;82.86
62680;BME280;68213;40.528;44.712;2023-04-25T02:08:45;80128.84;;;4.86;82.42
62680;BME280;68213;40.528;44.712;2023-04-25T02:09:45;80127.63;;;4.87;81.54
62680;BME280;68213;40.528;44.712;2023-04-25T02:10:46;80134.44;;;4.92;81.48
62680;BME280;68213;40.528;44.712;2023-04-25T02:11:47;80135.16;;;4.83;82.63
62680;BME280;68213;40.528;44.712;2023-04-25T02:12:50;80130.34;;;4.89;82.24
62680;BME280;68213;40.528;44.712;2023-04-25T02:13:51;80130.22;;;4.87;81.64
62680;BME280;68213;40.528;44.712;2023-04-25T02:14:52;80133.38;;;4.85;81.80
62680;BME280;68213;40.528;44.712;2023-04-25T02:15:53;80131.47;;;4.86;81.75
62680;BME280;68213;40.528;44.712;2023-04-25T02:16:53;80131.47;;;4.86;82.01
62680;BME280;68213;40.528;44.712;2023-04-25T02:17:56;80107.25;;;4.64;81.71
62680;BME280;68213;40.528;44.712;2023-04-25T02:18:58;80136.28;;;4.80;82.06
62680;BME280;68213;40.528;44.712;2023-04-25T02:19:59;80137.63;;;4.81;81.82
62680;BME280;68213;40.528;44.712;2023-04-25T02:21:00;80135.72;;;4.81;82.14
62680;BME280;68213;40.528;44.712;2023-04-25T02:22:01;80118.63;;;4.68;82.26
62680;BME280;68213;40.528;44.712;2023-04-25T02:23:02;80133.69;;;4.80;83.05
62680;BME280;68213;40.528;44.712;2023-04-25T02:24:03;80131.50;;;4.76;83.00
62680;BME280;68213;40.528;44.712;2023-04-25T02:25:05;80134.09;;;4.76;83.23
62680;BME280;68213;40.528;44.712;2023-04-25T02:26:06;80132.41;;;4.81;83.34
62680;BME280;68213;40.528;44.712;2023-04-25T02:27:06;80135.03;;;4.81;83.02
62680;BME280;68213;40.528;44.712;2023-04-25T02:28:08;80136.41;;;4.82;82.63
62680;BME280;68213;40.528;44.712;2023-04-25T02:29:09;80129.13;;;4.80;82.39
62680;BME280;68213;40.528;44.712;2023-04-25T02:30:11;80128.66;;;4.62;83.12
62680;BME280;68213;40.528;44.712;2023-04-25T02:31:12;80124.25;;;4.65;83.26
62680;BME280;68213;40.528;44.712;2023-04-25T02:32:12;80130.59;;;4.62;83.22
62680;BME280;68213;40.528;44.712;2023-04-25T02:33:13;80128.78;;;4.54;84.00
62680;BME280;68213;40.528;44.712;2023-04-25T02:34:17;80127.84;;;4.59;84.41
62680;BME280;68213;40.528;44.712;2023-04-25T02:35:18;80128.38;;;4.58;84.15
62680;BME280;68213;40.528;44.712;2023-04-25T02:36:18;80127.56;;;4.55;83.65
62680;BME280;68213;40.528;44.712;2023-04-25T02:37:19;80129.91;;;4.51;83.66
62680;BME280;68213;40.528;44.712;2023-04-25T02:38:20;80127.56;;;4.55;83.67
62680;BME280;68213;40.528;44.712;2023-04-25T02:39:21;80127.56;;;4.55;83.47
62680;BME280;68213;40.528;44.712;2023-04-25T02:40:22;80126.88;;;4.55;83.15
62680;BME280;68213;40.528;44.712;2023-04-25T02:41:23;80121.81;;;4.57;83.34
62680;BME280;68213;40.528;44.712;2023-04-25T02:42:24;80125.66;;;4.56;82.97
62680;BME280;68213;40.528;44.712;2023-04-25T02:43:24;80126.88;;;4.55;83.08
62680;BME280;68213;40.528;44.712;2023-04-25T02:44:25;80132.22;;;4.47;83.96
62680;BME280;68213;40.528;44.712;2023-04-25T02:45:26;80129.94;;;4.41;84.31
62680;BME280;68213;40.528;44.712;2023-04-25T02:46:27;80137.59;;;4.39;84.36
62680;BME280;68213;40.528;44.712;2023-04-25T02:47:28;80135.41;;;4.36;84.45
62680;BME280;68213;40.528;44.712;2023-04-25T02:48:29;80142.56;;;4.35;84.97
62680;BME280;68213;40.528;44.712;2023-04-25T02:49:29;80138.56;;;4.34;85.47
62680;BME280;68213;40.528;44.712;2023-04-25T02:50:30;80143.63;;;4.32;85.75
62680;BME280;68213;40.528;44.712;2023-04-25T02:51:31;80144.06;;;4.28;86.52
62680;BME280;68213;40.528;44.712;2023-04-25T02:52:33;80147.47;;;4.31;87.33
62680;BME280;68213;40.528;44.712;2023-04-25T02:53:33;80134.47;;;4.31;87.71
62680;BME280;68213;40.528;44.712;2023-04-25T02:54:34;80142.41;;;4.33;87.74
62680;BME280;68213;40.528;44.712;2023-04-25T02:55:35;80143.38;;;4.28;87.47
62680;BME280;68213;40.528;44.712;2023-04-25T02:56:36;80142.00;;;4.27;87.60
62680;BME280;68213;40.528;44.712;2023-04-25T02:57:36;80135.44;;;4.26;87.80
62680;BME280;68213;40.528;44.712;2023-04-25T02:58:37;80143.50;;;4.30;88.71
62680;BME280;68213;40.528;44.712;2023-04-25T02:59:38;80117.91;;;4.17;88.50
62680;BME280;68213;40.528;44.712;2023-04-25T03:00:39;80138.69;;;4.36;88.00
62680;BME280;68213;40.528;44.712;2023-04-25T03:01:39;80139.66;;;4.41;87.55
62680;BME280;68213;40.528;44.712;2023-04-25T03:02:40;80141.84;;;4.44;87.11
62680;BME280;68213;40.528;44.712;2023-04-25T03:03:41;80136.75;;;4.47;86.72
62680;BME280;68213;40.528;44.712;2023-04-25T03:04:41;80142.13;;;4.49;86.06
62680;BME280;68213;40.528;44.712;2023-04-25T03:05:42;80145.66;;;4.43;86.10
62680;BME280;68213;40.528;44.712;2023-04-25T03:06:43;80148.97;;;4.44;85.94
62680;BME280;68213;40.528;44.712;2023-04-25T03:07:44;80141.97;;;4.47;85.37
62680;BME280;68213;40.528;44.712;2023-04-25T03:08:45;80147.84;;;4.47;85.05
62680;BME280;68213;40.528;44.712;2023-04-25T03:09:47;80148.56;;;4.48;85.02
62680;BME280;68213;40.528;44.712;2023-04-25T03:10:47;80152.38;;;4.47;84.09
62680;BME280;68213;40.528;44.712;2023-04-25T03:11:50;80147.03;;;4.44;84.46
62680;BME280;68213;40.528;44.712;2023-04-25T03:12:51;80144.44;;;4.44;84.30
62680;BME280;68213;40.528;44.712;2023-04-25T03:13:51;80152.81;;;4.43;85.13
62680;BME280;68213;40.528;44.712;2023-04-25T03:14:52;80149.53;;;4.42;85.76
62680;BME280;68213;40.528;44.712;2023-04-25T03:15:53;80135.53;;;4.48;85.85
62680;BME280;68213;40.528;44.712;2023-04-25T03:16:53;80135.25;;;4.43;86.01
62680;BME280;68213;40.528;44.712;2023-04-25T03:17:57;80152.25;;;4.44;85.11
62680;BME280;68213;40.528;44.712;2023-04-25T03:18:58;80146.09;;;4.50;84.17
62680;BME280;68213;40.528;44.712;2023-04-25T03:19:58;80148.56;;;4.48;84.11
62680;BME280;68213;40.528;44.712;2023-04-25T03:20:59;80136.63;;;4.44;84.47
62680;BME280;68213;40.528;44.712;2023-04-25T03:22:03;80145.81;;;4.45;85.14
62680;BME280;68213;40.528;44.712;2023-04-25T03:23:03;80136.63;;;4.44;84.93
62680;BME280;68213;40.528;44.712;2023-04-25T03:24:05;80142.50;;;4.55;82.77
62680;BME280;68213;40.528;44.712;2023-04-25T03:25:06;80143.03;;;4.63;82.10
62680;BME280;68213;40.528;44.712;2023-04-25T03:26:07;80140.97;;;4.71;82.43
62680;BME280;68213;40.528;44.712;2023-04-25T03:27:08;80122.88;;;4.64;81.90
62680;BME280;68213;40.528;44.712;2023-04-25T03:28:09;80143.13;;;4.85;80.38
62680;BME280;68213;40.528;44.712;2023-04-25T03:29:09;80121.88;;;4.79;80.26
62680;BME280;68213;40.528;44.712;2023-04-25T03:30:10;80140.31;;;5.02;80.52
62680;BME280;68213;40.528;44.712;2023-04-25T03:31:11;80147.81;;;5.08;79.75
62680;BME280;68213;40.528;44.712;2023-04-25T03:32:14;80143.69;;;5.15;79.89
62680;BME280;68213;40.528;44.712;2023-04-25T03:33:15;80143.94;;;5.19;80.87
62680;BME280;68213;40.528;44.712;2023-04-25T03:34:16;80143.50;;;5.22;81.35
62680;BME280;68213;40.528;44.712;2023-04-25T03:35:19;80132.13;;;5.18;81.62
62680;BME280;68213;40.528;44.712;2023-04-25T03:36:19;80137.44;;;5.30;81.75
62680;BME280;68213;40.528;44.712;2023-04-25T03:37:20;80145.53;;;5.34;81.73
62680;BME280;68213;40.528;44.712;2023-04-25T03:38:21;80143.16;;;5.38;82.30
62680;BME280;68213;40.528;44.712;2023-04-25T03:39:22;80113.88;;;5.28;82.65
62680;BME280;68213;40.528;44.712;2023-04-25T03:40:22;80136.41;;;5.45;82.24
62680;BME280;68213;40.528;44.712;2023-04-25T03:41:25;80139.69;;;5.45;81.62
62680;BME280;68213;40.528;44.712;2023-04-25T03:42:26;80132.81;;;5.50;80.61
62680;BME280;68213;40.528;44.712;2023-04-25T03:43:26;80136.22;;;5.52;79.97
62680;BME280;68213;40.528;44.712;2023-04-25T03:44:27;80134.00;;;5.59;79.83
62680;BME280;68213;40.528;44.712;2023-04-25T03:45:28;80139.34;;;5.61;79.84
62680;BME280;68213;40.528;44.712;2023-04-25T03:46:29;80145.63;;;5.67;80.22
62680;BME280;68213;40.528;44.712;2023-04-25T03:47:29;80145.88;;;5.71;79.34
62680;BME280;68213;40.528;44.712;2023-04-25T03:48:32;80144.19;;;5.76;78.44
62680;BME280;68213;40.528;44.712;2023-04-25T03:49:34;80142.97;;;5.77;78.63
62680;BME280;68213;40.528;44.712;2023-04-25T03:50:34;80145.00;;;5.79;78.77
62680;BME280;68213;40.528;44.712;2023-04-25T03:51:35;80144.03;;;5.84;78.85
62680;BME280;68213;40.528;44.712;2023-04-25T03:52:36;80143.03;;;5.89;78.66
62680;BME280;68213;40.528;44.712;2023-04-25T03:53:37;80140.41;;;5.89;79.16
62680;BME280;68213;40.528;44.712;2023-04-25T03:54:38;80140.78;;;5.95;78.96
62680;BME280;68213;40.528;44.712;2023-04-25T03:55:38;80145.16;;;6.02;78.79
62680;BME280;68213;40.528;44.712;2023-04-25T03:56:39;80141.09;;;6.11;79.57
62680;BME280;68213;40.528;44.712;2023-04-25T03:57:40;80142.59;;;6.14;79.40
62680;BME280;68213;40.528;44.712;2023-04-25T03:58:41;80137.31;;;6.24;79.20
62680;BME280;68213;40.528;44.712;2023-04-25T03:59:41;80145.75;;;6.34;80.35
62680;BME280;68213;40.528;44.712;2023-04-25T04:00:42;80141.00;;;6.43;81.69
62680;BME280;68213;40.528;44.712;2023-04-25T04:01:43;80142.50;;;6.46;80.28
62680;BME280;68213;40.528;44.712;2023-04-25T04:02:43;80143.97;;;6.49;77.85
62680;BME280;68213;40.528;44.712;2023-04-25T04:03:44;80139.78;;;6.44;77.76
62680;BME280;68213;40.528;44.712;2023-04-25T04:04:45;80141.13;;;6.45;77.31
62680;BME280;68213;40.528;44.712;2023-04-25T04:05:46;80143.06;;;6.44;77.51
62680;BME280;68213;40.528;44.712;2023-04-25T04:06:47;80132.75;;;6.46;78.09
62680;BME280;68213;40.528;44.712;2023-04-25T04:07:48;80139.00;;;6.53;78.19
62680;BME280;68213;40.528;44.712;2023-04-25T04:08:49;80141.28;;;6.59;78.47
62680;BME280;68213;40.528;44.712;2023-04-25T04:09:50;80138.34;;;6.64;78.45
62680;BME280;68213;40.528;44.712;2023-04-25T04:10:51;80141.31;;;6.71;78.48
62680;BME280;68213;40.528;44.712;2023-04-25T04:11:51;80132.81;;;6.70;77.97
62680;BME280;68213;40.528;44.712;2023-04-25T04:12:52;80136.56;;;6.79;76.79
62680;BME280;68213;40.528;44.712;2023-04-25T04:13:53;80129.31;;;6.77;76.97
62680;BME280;68213;40.528;44.712;2023-04-25T04:14:53;80134.09;;;6.81;76.13
62680;BME280;68213;40.528;44.712;2023-04-25T04:15:55;80121.13;;;6.83;78.87
62680;BME280;68213;40.528;44.712;2023-04-25T04:16:56;80125.34;;;6.88;79.92
62680;BME280;68213;40.528;44.712;2023-04-25T04:17:56;80125.66;;;6.71;80.13
62680;BME280;68213;40.528;44.712;2023-04-25T04:18:57;80121.09;;;6.71;79.90
62680;BME280;68213;40.528;44.712;2023-04-25T04:19:58;80124.72;;;6.66;81.36
62680;BME280;68213;40.528;44.712;2023-04-25T04:21:02;80119.94;;;6.62;82.08
62680;BME280;68213;40.528;44.712;2023-04-25T04:22:03;80120.59;;;6.51;82.45
62680;BME280;68213;40.528;44.712;2023-04-25T04:23:04;80116.72;;;6.40;82.85
62680;BME280;68213;40.528;44.712;2023-04-25T04:24:06;80122.41;;;6.48;75.14
62680;BME280;68213;40.528;44.712;2023-04-25T04:25:07;80129.25;;;6.54;74.03
62680;BME280;68213;40.528;44.712;2023-04-25T04:26:08;80126.50;;;6.51;71.66
62680;BME280;68213;40.528;44.712;2023-04-25T04:27:09;80109.91;;;6.47;71.62
62680;BME280;68213;40.528;44.712;2023-04-25T04:28:10;80117.22;;;6.60;73.54
62680;BME280;68213;40.528;44.712;2023-04-25T04:29:11;80118.94;;;6.67;72.14
62680;BME280;68213;40.528;44.712;2023-04-25T04:30:12;80125.88;;;6.75;71.24
62680;BME280;68213;40.528;44.712;2023-04-25T04:31:13;80119.66;;;6.80;73.06
62680;BME280;68213;40.528;44.712;2023-04-25T04:32:17;80124.31;;;6.81;70.77
62680;BME280;68213;40.528;44.712;2023-04-25T04:33:17;80123.72;;;6.83;70.87
62680;BME280;68213;40.528;44.712;2023-04-25T04:34:21;80124.09;;;6.89;70.71
62680;BME280;68213;40.528;44.712;2023-04-25T04:35:23;80107.59;;;6.75;69.08
62680;BME280;68213;40.528;44.712;2023-04-25T04:36:23;80124.53;;;6.86;72.13
62680;BME280;68213;40.528;44.712;2023-04-25T04:37:24;80129.44;;;6.91;74.39
62680;BME280;68213;40.528;44.712;2023-04-25T04:38:25;80139.41;;;6.83;70.61
62680;BME280;68213;40.528;44.712;2023-04-25T04:39:26;80083.31;;;6.39;69.94
62680;BME280;68213;40.528;44.712;2023-04-25T04:40:27;80134.41;;;6.75;70.18
62680;BME280;68213;40.528;44.712;2023-04-25T04:41:28;80141.78;;;6.79;70.45
62680;BME280;68213;40.528;44.712;2023-04-25T04:42:28;80136.25;;;6.85;71.36
62680;BME280;68213;40.528;44.712;2023-04-25T04:43:29;80139.88;;;6.91;71.79
62680;BME280;68213;40.528;44.712;2023-04-25T04:44:30;80146.81;;;6.98;72.11
62680;BME280;68213;40.528;44.712;2023-04-25T04:45:33;80143.88;;;7.04;73.05
62680;BME280;68213;40.528;44.712;2023-04-25T04:46:34;80134.34;;;7.09;73.28
62680;BME280;68213;40.528;44.712;2023-04-25T04:47:42;80129.78;;;7.09;68.25
62680;BME280;68213;40.528;44.712;2023-04-25T04:48:43;80139.13;;;7.12;69.06
62680;BME280;68213;40.528;44.712;2023-04-25T04:49:44;80136.38;;;7.10;67.32
62680;BME280;68213;40.528;44.712;2023-04-25T04:50:45;80140.59;;;7.15;69.56
62680;BME280;68213;40.528;44.712;2023-04-25T04:51:46;80146.19;;;7.22;68.75
62680;BME280;68213;40.528;44.712;2023-04-25T04:52:47;80139.13;;;7.24;66.49
62680;BME280;68213;40.528;44.712;2023-04-25T04:53:48;80129.47;;;7.15;68.03
62680;BME280;68213;40.528;44.712;2023-04-25T04:54:48;80140.50;;;7.25;68.74
62680;BME280;68213;40.528;44.712;2023-04-25T04:55:49;80134.13;;;7.28;68.81
62680;BME280;68213;40.528;44.712;2023-04-25T04:56:50;80141.88;;;7.38;69.02
62680;BME280;68213;40.528;44.712;2023-04-25T04:57:52;80143.47;;;7.43;69.86
62680;BME280;68213;40.528;44.712;2023-04-25T04:58:55;80147.00;;;7.48;69.79
62680;BME280;68213;40.528;44.712;2023-04-25T04:59:56;80139.63;;;7.44;66.10
62680;BME280;68213;40.528;44.712;2023-04-25T05:00:57;80145.28;;;7.41;67.33
62680;BME280;68213;40.528;44.712;2023-04-25T05:01:57;80144.72;;;7.42;68.16
62680;BME280;68213;40.528;44.712;2023-04-25T05:02:58;80139.59;;;7.33;69.40
62680;BME280;68213;40.528;44.712;2023-04-25T05:03:59;80145.63;;;7.23;69.70
62680;BME280;68213;40.528;44.712;2023-04-25T05:05:00;80148.91;;;7.24;71.05
62680;BME280;68213;40.528;44.712;2023-04-25T05:06:01;80141.84;;;7.26;71.50
62680;BME280;68213;40.528;44.712;2023-04-25T05:07:04;80142.31;;;7.35;71.63
62680;BME280;68213;40.528;44.712;2023-04-25T05:08:06;80149.38;;;7.44;70.47
62680;BME280;68213;40.528;44.712;2023-04-25T05:09:07;80150.97;;;7.49;69.00
62680;BME280;68213;40.528;44.712;2023-04-25T05:10:08;80148.59;;;7.53;69.96
62680;BME280;68213;40.528;44.712;2023-04-25T05:11:09;80143.03;;;7.47;69.02
62680;BME280;68213;40.528;44.712;2023-04-25T05:12:10;80139.03;;;7.46;68.50
62680;BME280;68213;40.528;44.712;2023-04-25T05:13:11;80147.34;;;7.54;69.03
62680;BME280;68213;40.528;44.712;2023-04-25T05:14:12;80146.31;;;7.47;69.63
62680;BME280;68213;40.528;44.712;2023-04-25T05:15:13;80143.34;;;7.53;70.74
62680;BME280;68213;40.528;44.712;2023-04-25T05:16:14;80152.13;;;7.58;70.87
62680;BME280;68213;40.528;44.712;2023-04-25T05:17:14;80146.44;;;7.61;70.26
62680;BME280;68213;40.528;44.712;2023-04-25T05:18:15;80132.22;;;7.41;70.45
62680;BME280;68213;40.528;44.712;2023-04-25T05:19:16;80158.72;;;7.59;70.38
62680;BME280;68213;40.528;44.712;2023-04-25T05:20:17;80163.84;;;7.69;70.24
62680;BME280;68213;40.528;44.712;2023-04-25T05:21:19;80161.44;;;7.73;69.28
62680;BME280;68213;40.528;44.712;2023-04-25T05:22:20;80157.09;;;7.66;67.67
62680;BME280;68213;40.528;44.712;2023-04-25T05:23:20;80153.25;;;7.67;69.40
62680;BME280;68213;40.528;44.712;2023-04-25T05:24:21;80164.63;;;7.71;70.08